Prince Frederick, MD

4:50 AM EDT on July 02, 2015 (GMT -0400)
St. Leonard | | Change Station
CLOSE
Current Station
Personal Weather Station
Location: Saint Leonard, MD
Elevation: 154 ft
Nearby Weather Stations

Elev 154 ft 38.49 °N, 76.51 °W | Updated 2 minutes ago

Partly Cloudy
Partly Cloudy
69.0 °F
Feels Like 69.0 °F
N
0.0
Wind Variable Wind from North
Gusts 0.0 mph

Today
High -- | Low -- °F
--% Chance of Precip.
Yesterday
High -- | Low -- °F
Precip. -- in
5:46 AM 8:34 PM
Full, 100% visible
Pressure 29.89 in
Visibility 3.0 miles
Clouds Scattered Clouds 1200 ft
Mostly Cloudy 7500 ft
Overcast 11000 ft
Dew Point 68 °F
Humidity 95%
Rainfall 0.00 in
Snow Depth Not available.
UV 0 out of 12
Pollen 4.50 out of 12
Air Quality Not available.
Flu Activity Not available.
METAR K2W6 020839Z AUTO 00000KT 3SM SCT012 BKN075 OVC110 21/20 A2989 RMK AO1

More Conditions Fewer Conditions

Pressure 29.89 in
Visibility 3.0 miles
Clouds Scattered Clouds 1200 ft
Mostly Cloudy 7500 ft
Overcast 11000 ft
Dew Point 68 °F
Humidity 95%
Rainfall 0.00 in
Snow Depth Not available.
UV 0 out of 12
Pollen 4.50 out of 12
Air Quality Not available.
Flu Activity Not available.
METAR K2W6 020839Z AUTO 00000KT 3SM SCT012 BKN075 OVC110 21/20 A2989 RMK AO1

More Conditions Fewer Conditions

10-Day Weather Forecast

×

Almanac

Astronomy

Jul. 02, 2015 Rise Set
Actual Time
Civil Twilight
Nautical Twilight
Astronomical Twilight
Moon
Length of Visible Light
Length of Day
Tomorrow will be .
, % of the Moon is Illuminated

Today's Extremes

State Highs State Lows

Community

WunderPhotos

Upload Photos

1,834,423 photos uploaded!

WunderBlogs® & News

Nearby

Air Quality

  Air Quality AQ Index Pollutant
Not available.

Snow Depth

Station Depth Elevation

Earthquake Activity

City Distance Mag. Time & Date
Minimum magnitude displayed is 2.5.

Coastal Water Temperatures

Place Temperature

Stations

Nearby Weather Stations

Station Location Temp. Windchill Dew Point Humidity Wind Precip. Elev Updated Type